Time;durP1;ratioP1;P1;durP2;ratioP2;P2;SDS_P1;SDS_P2;PMS_P1;PMS_P2;Temp;Humidity;BMP_temperature;BMP_pressure;BME280_temperature;BME280_humidity;BME280_pressure;Samples;Min_cycle;Max_cycle;Signal;HPM_P1;HPM_P2
2023/08/19 00:01:19;;;;;;;7.50;3.58;;;;;;;;;;5000060;28;20076;-61
2023/08/19 00:03:45;;;;;;;4.18;2.40;;;;;;;;;;4998461;28;20068;-63
2023/08/19 00:06:31;;;;;;;6.45;3.83;;;;;;;;;;4999769;28;20038;-64
2023/08/19 00:08:58;;;;;;;6.78;3.40;;;;;;;;;;4996652;28;20583;-62
2023/08/19 00:11:24;;;;;;;8.90;4.38;;;;;;;;;;4997330;28;20038;-64
2023/08/19 00:13:51;;;;;;;6.85;3.78;;;;;;;;;;4998391;28;20042;-61
2023/08/19 00:16:17;;;;;;;6.57;3.65;;;;;;;;;;4999828;28;20045;-64
2023/08/19 00:18:44;;;;;;;5.65;3.10;;;;;;;;;;4998328;28;20046;-64
2023/08/19 00:21:11;;;;;;;8.00;3.63;;;;;;;;;;5013613;28;20957;-65
2023/08/19 00:23:38;;;;;;;6.75;3.80;;;;;;;;;;4997233;28;20399;-65
2023/08/19 00:26:04;;;;;;;6.22;3.00;;;;;;;;;;4999245;28;20047;-63
2023/08/19 00:28:31;;;;;;;8.73;4.95;;;;;;;;;;4996649;28;20034;-63
2023/08/19 00:30:58;;;;;;;9.07;5.00;;;;;;;;;;4994909;28;20209;-62
2023/08/19 00:33:24;;;;;;;10.75;6.25;;;;;;;;;;4997668;28;20056;-65
2023/08/19 00:35:52;;;;;;;10.45;6.57;;;;;;;;;;4998044;28;20156;-61
2023/08/19 00:38:18;;;;;;;11.00;6.47;;;;;;;;;;5014390;28;20084;-61
2023/08/19 00:40:45;;;;;;;16.70;11.48;;;;;;;;;;4997944;28;20054;-63
2023/08/19 00:43:12;;;;;;;15.93;10.98;;;;;;;;;;4999377;28;20553;-61
2023/08/19 00:45:46;;;;;;;22.27;15.05;;;;;;;;;;4998163;28;20048;-62
2023/08/19 00:48:13;;;;;;;21.73;13.35;;;;;;;;;;5000227;28;20032;-61
2023/08/19 00:50:40;;;;;;;23.20;13.48;;;;;;;;;;5014183;28;20034;-63
2023/08/19 00:53:07;;;;;;;23.15;16.25;;;;;;;;;;5015020;28;20505;-63
2023/08/19 00:55:34;;;;;;;27.25;17.70;;;;;;;;;;4998912;28;20669;-61
2023/08/19 00:58:03;;;;;;;25.00;14.00;;;;;;;;;;5014221;28;20062;-63
2023/08/19 01:00:33;;;;;;;22.75;16.08;;;;;;;;;;4999728;28;20049;-63
2023/08/19 01:03:00;;;;;;;27.83;16.10;;;;;;;;;;4997942;28;20050;-61
2023/08/19 01:05:50;;;;;;;20.77;10.88;;;;;;;;;;4997716;28;20765;-64
2023/08/19 01:08:19;;;;;;;14.63;10.60;;;;;;;;;;4962363;28;20656;-61
2023/08/19 01:10:49;;;;;;;18.77;11.43;;;;;;;;;;4999118;28;20505;-63
2023/08/19 01:13:16;;;;;;;16.75;11.13;;;;;;;;;;4999333;28;20042;-63
2023/08/19 01:15:48;;;;;;;14.00;8.93;;;;;;;;;;4996336;28;20038;-61
2023/08/19 01:18:16;;;;;;;12.00;7.57;;;;;;;;;;4998713;28;20058;-62
2023/08/19 01:20:43;;;;;;;14.25;7.75;;;;;;;;;;4997916;28;20065;-63
2023/08/19 01:23:17;;;;;;;13.50;7.93;;;;;;;;;;4997147;28;20682;-61
2023/08/19 01:25:44;;;;;;;11.05;6.97;;;;;;;;;;4997438;28;20169;-61
2023/08/19 01:28:11;;;;;;;10.68;6.78;;;;;;;;;;4999545;28;20048;-62
2023/08/19 01:30:38;;;;;;;10.57;6.15;;;;;;;;;;5003304;28;20034;-61
2023/08/19 01:33:05;;;;;;;8.77;5.45;;;;;;;;;;5003346;28;20121;-63
2023/08/19 01:35:44;;;;;;;8.50;5.32;;;;;;;;;;4998156;28;20981;-60
2023/08/19 01:38:25;;;;;;;8.52;5.25;;;;;;;;;;5015083;28;20057;-61
2023/08/19 01:40:53;;;;;;;10.15;5.63;;;;;;;;;;5018585;28;20128;-63
2023/08/19 01:43:19;;;;;;;10.05;5.63;;;;;;;;;;5006156;28;20042;-61
2023/08/19 01:45:46;;;;;;;10.25;5.80;;;;;;;;;;5012472;28;20594;-63
2023/08/19 01:48:13;;;;;;;8.13;4.57;;;;;;;;;;4999008;28;20575;-63
2023/08/19 01:50:39;;;;;;;8.77;5.07;;;;;;;;;;4997819;28;20038;-61
2023/08/19 01:53:06;;;;;;;10.13;4.90;;;;;;;;;;5012488;28;20046;-63
2023/08/19 01:55:33;;;;;;;5.38;3.10;;;;;;;;;;4996081;28;20053;-65
2023/08/19 01:57:59;;;;;;;10.95;4.85;;;;;;;;;;4996899;28;20037;-63
2023/08/19 02:00:26;;;;;;;8.40;4.15;;;;;;;;;;4997903;28;20041;-63
2023/08/19 02:02:53;;;;;;;5.30;3.05;;;;;;;;;;4997356;28;20045;-65
2023/08/19 02:05:19;;;;;;;5.35;2.85;;;;;;;;;;5012391;28;20030;-65
2023/08/19 02:07:46;;;;;;;5.18;2.42;;;;;;;;;;4997059;28;20070;-63
2023/08/19 02:10:13;;;;;;;6.90;2.65;;;;;;;;;;4997259;28;20518;-64
2023/08/19 02:12:39;;;;;;;5.00;2.70;;;;;;;;;;5010884;28;20037;-61
2023/08/19 02:15:06;;;;;;;3.75;1.80;;;;;;;;;;4996156;28;20037;-61
2023/08/19 02:17:33;;;;;;;3.80;1.85;;;;;;;;;;5012450;28;20129;-62
2023/08/19 02:19:59;;;;;;;4.38;2.15;;;;;;;;;;4996684;28;20042;-62
2023/08/19 02:22:26;;;;;;;4.10;1.95;;;;;;;;;;4996599;28;20042;-63
2023/08/19 02:24:53;;;;;;;4.07;1.90;;;;;;;;;;4994582;28;20034;-62
2023/08/19 02:27:19;;;;;;;4.32;1.63;;;;;;;;;;5009507;28;20517;-61
2023/08/19 02:29:46;;;;;;;4.03;1.75;;;;;;;;;;4993853;28;20103;-60
2023/08/19 02:32:13;;;;;;;7.15;1.58;;;;;;;;;;5008606;28;20084;-64
2023/08/19 02:34:39;;;;;;;5.65;1.48;;;;;;;;;;4993517;28;20402;-60
2023/08/19 02:37:06;;;;;;;3.63;1.60;;;;;;;;;;4993635;28;20042;-61
2023/08/19 02:39:32;;;;;;;3.65;1.40;;;;;;;;;;4995781;28;20050;-64
2023/08/19 02:41:59;;;;;;;3.35;1.40;;;;;;;;;;4996435;28;20045;-62
2023/08/19 02:44:26;;;;;;;3.53;1.63;;;;;;;;;;4995077;28;20034;-62
2023/08/19 02:46:53;;;;;;;3.20;1.45;;;;;;;;;;4994714;28;20129;-67
2023/08/19 02:49:19;;;;;;;3.45;1.10;;;;;;;;;;5010650;28;20053;-66
2023/08/19 02:51:46;;;;;;;2.95;1.17;;;;;;;;;;5007808;28;20053;-64
2023/08/19 02:54:13;;;;;;;2.97;1.13;;;;;;;;;;4995253;28;20045;-61
2023/08/19 02:56:40;;;;;;;2.80;1.08;;;;;;;;;;5013744;28;20375;-70
2023/08/19 02:59:07;;;;;;;3.15;1.25;;;;;;;;;;5016671;28;20088;-64
2023/08/19 03:01:33;;;;;;;5.03;1.50;;;;;;;;;;5001479;28;20064;-66
2023/08/19 03:04:00;;;;;;;3.38;1.40;;;;;;;;;;5000770;28;20445;-64
2023/08/19 03:06:27;;;;;;;4.30;1.40;;;;;;;;;;5001633;28;20064;-62
2023/08/19 03:08:53;;;;;;;3.00;1.30;;;;;;;;;;5001050;28;20034;-65
2023/08/19 03:11:20;;;;;;;2.97;1.10;;;;;;;;;;5002686;28;20104;-63
2023/08/19 03:13:47;;;;;;;3.00;1.20;;;;;;;;;;4997981;28;20052;-64
2023/08/19 03:16:14;;;;;;;3.92;1.30;;;;;;;;;;5001186;28;20426;-64
2023/08/19 03:18:41;;;;;;;3.17;1.25;;;;;;;;;;4999651;28;20046;-61
2023/08/19 03:21:08;;;;;;;3.17;1.10;;;;;;;;;;5001255;28;20042;-62
2023/08/19 03:23:34;;;;;;;3.20;1.27;;;;;;;;;;4999210;28;20034;-64
2023/08/19 03:26:01;;;;;;;3.58;1.23;;;;;;;;;;5015171;28;20034;-64
2023/08/19 03:28:28;;;;;;;2.50;0.90;;;;;;;;;;5014849;28;20049;-62
2023/08/19 03:30:54;;;;;;;2.78;0.98;;;;;;;;;;5000701;28;20947;-68
2023/08/19 03:33:21;;;;;;;2.63;0.93;;;;;;;;;;5003568;28;20120;-64
2023/08/19 03:35:48;;;;;;;2.05;0.75;;;;;;;;;;4996189;28;20057;-62
2023/08/19 03:38:16;;;;;;;2.70;1.00;;;;;;;;;;5001179;28;20045;-64
2023/08/19 03:40:42;;;;;;;2.42;0.90;;;;;;;;;;5019433;28;20037;-64
2023/08/19 03:43:10;;;;;;;2.80;0.90;;;;;;;;;;5004610;28;20045;-64
2023/08/19 03:45:37;;;;;;;2.50;0.90;;;;;;;;;;5006100;28;20409;-63
2023/08/19 03:48:03;;;;;;;2.70;0.77;;;;;;;;;;5005289;28;20176;-62
2023/08/19 03:50:30;;;;;;;2.92;0.95;;;;;;;;;;5002028;28;20038;-63
2023/08/19 03:52:56;;;;;;;3.08;0.80;;;;;;;;;;5004617;28;20048;-62
2023/08/19 03:55:23;;;;;;;3.13;1.00;;;;;;;;;;5014298;28;20100;-66
2023/08/19 03:57:51;;;;;;;2.47;0.90;;;;;;;;;;5018283;28;20065;-66
2023/08/19 04:00:17;;;;;;;1.85;0.70;;;;;;;;;;5025781;28;20041;-64
2023/08/19 04:02:44;;;;;;;1.80;0.68;;;;;;;;;;5025513;28;20038;-65
2023/08/19 04:05:12;;;;;;;1.52;0.60;;;;;;;;;;5040465;28;20038;-63
2023/08/19 04:07:38;;;;;;;3.20;0.80;;;;;;;;;;5010571;28;20037;-63
2023/08/19 04:10:05;;;;;;;2.50;0.90;;;;;;;;;;5039529;28;20034;-64
2023/08/19 04:12:32;;;;;;;2.75;0.85;;;;;;;;;;5026261;28;20073;-63
2023/08/19 04:14:59;;;;;;;1.77;0.70;;;;;;;;;;5025067;28;20038;-63
2023/08/19 04:17:25;;;;;;;2.30;0.80;;;;;;;;;;5025215;28;20049;-63
2023/08/19 04:19:52;;;;;;;1.17;0.50;;;;;;;;;;5025769;28;20054;-62
2023/08/19 04:22:19;;;;;;;1.95;0.80;;;;;;;;;;5010218;28;20073;-63
2023/08/19 04:24:52;;;;;;;2.35;0.93;;;;;;;;;;5005041;28;20035;-65
2023/08/19 04:27:20;;;;;;;1.23;0.50;;;;;;;;;;5021313;28;20054;-61
2023/08/19 04:29:46;;;;;;;2.20;0.70;;;;;;;;;;5036576;28;20022;-61
2023/08/19 04:32:13;;;;;;;2.78;0.80;;;;;;;;;;5022206;28;20061;-64
2023/08/19 04:34:39;;;;;;;2.58;0.85;;;;;;;;;;5021957;28;20053;-62
2023/08/19 04:37:07;;;;;;;2.70;1.10;;;;;;;;;;5038804;28;20085;-64
2023/08/19 04:39:53;;;;;;;2.28;0.90;;;;;;;;;;5056780;28;20109;-65
2023/08/19 04:42:20;;;;;;;2.92;0.90;;;;;;;;;;5057514;28;20041;-63
2023/08/19 04:44:46;;;;;;;2.60;1.00;;;;;;;;;;5055058;28;20101;-66
2023/08/19 04:47:14;;;;;;;2.67;0.90;;;;;;;;;;5034987;28;20040;-63
2023/08/19 04:49:40;;;;;;;2.60;0.98;;;;;;;;;;5032269;28;20068;-62
2023/08/19 04:52:07;;;;;;;2.80;0.90;;;;;;;;;;5048030;28;20090;-63
2023/08/19 04:54:34;;;;;;;2.70;0.90;;;;;;;;;;5021349;28;20104;-64
2023/08/19 04:57:01;;;;;;;2.50;0.88;;;;;;;;;;5023447;28;20036;-62
2023/08/19 04:59:27;;;;;;;2.53;0.90;;;;;;;;;;5021260;28;20107;-62
2023/08/19 05:01:54;;;;;;;2.28;0.80;;;;;;;;;;5003903;28;20986;-63
2023/08/19 05:04:21;;;;;;;3.08;1.10;;;;;;;;;;5038537;28;20053;-63
2023/08/19 05:06:47;;;;;;;2.92;1.10;;;;;;;;;;5037442;28;20509;-63
2023/08/19 05:09:14;;;;;;;3.65;0.90;;;;;;;;;;5039065;28;20037;-63
2023/08/19 05:11:40;;;;;;;3.08;1.10;;;;;;;;;;5005599;28;20142;-63
2023/08/19 05:14:07;;;;;;;2.35;0.80;;;;;;;;;;5015984;28;20684;-61
2023/08/19 05:16:34;;;;;;;3.30;1.40;;;;;;;;;;5000175;28;20108;-62
2023/08/19 05:19:06;;;;;;;2.45;1.10;;;;;;;;;;5014283;28;20049;-63
2023/08/19 05:21:32;;;;;;;2.67;1.00;;;;;;;;;;5000238;28;20446;-64
2023/08/19 05:24:00;;;;;;;2.20;0.90;;;;;;;;;;5012735;28;20032;-61
2023/08/19 05:26:26;;;;;;;3.72;1.45;;;;;;;;;;4997909;28;20037;-62
2023/08/19 05:28:53;;;;;;;3.55;1.60;;;;;;;;;;5014675;28;20038;-63
2023/08/19 05:31:19;;;;;;;2.85;1.15;;;;;;;;;;5014676;28;20052;-62
2023/08/19 05:33:46;;;;;;;3.58;1.30;;;;;;;;;;4996722;28;20048;-62
2023/08/19 05:36:13;;;;;;;3.80;1.30;;;;;;;;;;4997953;28;20037;-63
2023/08/19 05:38:39;;;;;;;3.25;1.50;;;;;;;;;;4996052;28;20434;-61
2023/08/19 05:41:06;;;;;;;3.92;1.48;;;;;;;;;;4998333;28;20038;-61
2023/08/19 05:43:33;;;;;;;3.47;1.40;;;;;;;;;;4997161;28;20517;-61
2023/08/19 05:46:00;;;;;;;3.78;1.50;;;;;;;;;;5012793;28;20038;-61
2023/08/19 05:48:27;;;;;;;3.17;1.50;;;;;;;;;;5011821;28;20184;-63
2023/08/19 05:50:53;;;;;;;3.58;1.60;;;;;;;;;;4997530;28;20046;-62
2023/08/19 05:53:20;;;;;;;3.63;1.35;;;;;;;;;;4997330;28;20042;-61
2023/08/19 05:55:47;;;;;;;2.92;1.13;;;;;;;;;;4996675;28;20038;-60
2023/08/19 05:58:14;;;;;;;2.45;1.00;;;;;;;;;;5011896;28;20037;-63
2023/08/19 06:00:41;;;;;;;4.20;1.50;;;;;;;;;;5011402;28;20570;-64
2023/08/19 06:03:07;;;;;;;4.00;1.60;;;;;;;;;;4994276;28;20038;-63
2023/08/19 06:05:35;;;;;;;2.92;1.38;;;;;;;;;;4995897;28;20148;-61
2023/08/19 06:08:04;;;;;;;3.42;1.33;;;;;;;;;;4997428;28;20050;-60
2023/08/19 06:10:32;;;;;;;4.43;1.65;;;;;;;;;;5010493;28;20057;-63
2023/08/19 06:13:18;;;;;;;3.85;1.52;;;;;;;;;;5001354;28;20050;-66
2023/08/19 06:15:45;;;;;;;3.95;1.48;;;;;;;;;;4985248;28;20045;-62
2023/08/19 06:18:11;;;;;;;3.03;1.25;;;;;;;;;;5001960;28;20848;-61
2023/08/19 06:20:38;;;;;;;4.03;1.60;;;;;;;;;;4983749;28;20584;-61
2023/08/19 06:23:07;;;;;;;2.60;1.00;;;;;;;;;;5000297;28;20052;-61
2023/08/19 06:25:34;;;;;;;3.13;1.30;;;;;;;;;;4987286;28;20045;-62
2023/08/19 06:28:01;;;;;;;3.50;1.48;;;;;;;;;;5001448;28;20135;-63
2023/08/19 06:30:27;;;;;;;3.40;1.23;;;;;;;;;;5004013;28;20041;-64
2023/08/19 06:32:54;;;;;;;2.97;1.17;;;;;;;;;;5006121;28;20041;-62
2023/08/19 06:35:21;;;;;;;3.60;1.48;;;;;;;;;;5006221;28;20569;-60
2023/08/19 06:37:48;;;;;;;2.42;1.00;;;;;;;;;;5005691;28;20053;-62
2023/08/19 06:40:16;;;;;;;4.25;1.50;;;;;;;;;;4992518;28;20053;-61
2023/08/19 06:42:42;;;;;;;4.15;1.80;;;;;;;;;;5005173;28;20045;-62
2023/08/19 06:45:10;;;;;;;3.55;1.50;;;;;;;;;;5010970;28;20030;-62
2023/08/19 06:47:38;;;;;;;4.25;1.40;;;;;;;;;;5015567;28;20038;-62
2023/08/19 06:50:05;;;;;;;2.20;1.00;;;;;;;;;;5000901;28;20038;-62
2023/08/19 06:52:32;;;;;;;3.50;1.52;;;;;;;;;;4999034;28;20042;-62
2023/08/19 06:54:59;;;;;;;3.67;1.40;;;;;;;;;;4999497;28;20418;-64
2023/08/19 06:57:29;;;;;;;3.45;1.40;;;;;;;;;;4998259;28;20113;-63
2023/08/19 07:00:03;;;;;;;4.15;1.45;;;;;;;;;;5001419;28;20125;-62
2023/08/19 07:02:33;;;;;;;2.35;0.90;;;;;;;;;;5002109;28;20046;-63
2023/08/19 07:05:00;;;;;;;3.72;1.70;;;;;;;;;;5002346;28;20120;-62
2023/08/19 07:07:28;;;;;;;3.78;1.60;;;;;;;;;;5000919;28;20048;-64
2023/08/19 07:09:55;;;;;;;3.97;1.67;;;;;;;;;;5001348;28;20046;-63
2023/08/19 07:12:22;;;;;;;5.47;2.05;;;;;;;;;;5001627;28;20060;-63
2023/08/19 07:14:49;;;;;;;3.30;1.67;;;;;;;;;;4995518;28;20540;-63
2023/08/19 07:17:18;;;;;;;4.05;1.67;;;;;;;;;;5001726;28;20042;-62
2023/08/19 07:19:47;;;;;;;3.95;1.33;;;;;;;;;;4999137;28;20052;-63
2023/08/19 07:22:14;;;;;;;4.57;2.28;;;;;;;;;;4999880;28;20057;-63
2023/08/19 07:24:42;;;;;;;6.05;2.00;;;;;;;;;;4999401;28;20046;-61
2023/08/19 07:27:10;;;;;;;4.97;2.10;;;;;;;;;;5014172;28;20375;-61
2023/08/19 07:29:37;;;;;;;5.15;2.20;;;;;;;;;;4995325;28;20045;-61
2023/08/19 07:32:04;;;;;;;4.82;2.10;;;;;;;;;;5000928;28;20747;-63
2023/08/19 07:34:31;;;;;;;4.55;2.22;;;;;;;;;;5011642;28;20042;-64
2023/08/19 07:36:58;;;;;;;5.32;2.42;;;;;;;;;;4999930;28;20057;-64
2023/08/19 07:39:25;;;;;;;7.03;2.35;;;;;;;;;;4997419;28;20414;-65
2023/08/19 07:41:51;;;;;;;5.03;2.35;;;;;;;;;;4998679;28;20137;-62
2023/08/19 07:44:18;;;;;;;5.43;2.55;;;;;;;;;;4998206;28;20077;-62
2023/08/19 07:46:45;;;;;;;4.97;2.38;;;;;;;;;;4997807;28;21067;-63
2023/08/19 07:49:12;;;;;;;4.72;2.50;;;;;;;;;;4997021;28;20049;-63
2023/08/19 07:51:39;;;;;;;5.95;2.67;;;;;;;;;;4998007;28;20065;-63
2023/08/19 07:54:05;;;;;;;6.53;2.80;;;;;;;;;;4997804;28;20061;-63
2023/08/19 07:56:32;;;;;;;7.45;2.70;;;;;;;;;;4997186;28;20057;-61
2023/08/19 07:58:59;;;;;;;4.82;2.40;;;;;;;;;;4997467;28;20042;-64
2023/08/19 08:01:25;;;;;;;5.00;2.70;;;;;;;;;;4999243;28;20038;-61
2023/08/19 08:03:52;;;;;;;6.55;3.03;;;;;;;;;;5012087;28;20042;-61
2023/08/19 08:06:18;;;;;;;7.90;3.20;;;;;;;;;;4999120;28;20049;-61
2023/08/19 08:08:45;;;;;;;5.30;3.05;;;;;;;;;;4997396;28;21769;-61
2023/08/19 08:11:12;;;;;;;6.22;3.40;;;;;;;;;;5012745;28;21467;-61
2023/08/19 08:13:38;;;;;;;7.32;3.30;;;;;;;;;;5011664;28;20556;-63
2023/08/19 08:16:05;;;;;;;6.28;3.10;;;;;;;;;;4999335;28;20115;-63
2023/08/19 08:18:31;;;;;;;7.38;3.50;;;;;;;;;;4999402;28;20057;-63
2023/08/19 08:20:58;;;;;;;7.10;3.58;;;;;;;;;;4999033;28;21455;-61
2023/08/19 08:23:25;;;;;;;7.72;3.45;;;;;;;;;;4998617;28;20875;-63
2023/08/19 08:25:51;;;;;;;5.70;2.72;;;;;;;;;;5001608;28;20042;-60
2023/08/19 08:28:18;;;;;;;7.38;3.72;;;;;;;;;;5000892;28;20463;-62
2023/08/19 08:30:45;;;;;;;6.88;3.50;;;;;;;;;;5011956;28;20042;-63
2023/08/19 08:33:11;;;;;;;6.65;3.90;;;;;;;;;;4998182;28;20050;-61
2023/08/19 08:35:38;;;;;;;7.38;3.95;;;;;;;;;;4996195;28;20046;-63
2023/08/19 08:38:05;;;;;;;6.78;4.32;;;;;;;;;;4998830;28;20069;-64
2023/08/19 08:40:32;;;;;;;6.43;3.60;;;;;;;;;;4997590;28;20506;-63
2023/08/19 08:42:59;;;;;;;7.63;3.85;;;;;;;;;;5011789;28;20037;-61
2023/08/19 08:45:27;;;;;;;6.95;3.83;;;;;;;;;;4996870;28;20110;-61
2023/08/19 08:47:54;;;;;;;8.48;4.10;;;;;;;;;;5013816;28;20056;-61
2023/08/19 08:50:22;;;;;;;8.38;4.32;;;;;;;;;;4997498;28;20222;-63
2023/08/19 08:52:48;;;;;;;6.93;3.97;;;;;;;;;;5009103;28;20340;-61
2023/08/19 08:55:15;;;;;;;7.82;4.95;;;;;;;;;;4997638;28;20062;-63
2023/08/19 08:57:42;;;;;;;10.80;4.88;;;;;;;;;;4996396;28;20126;-62
2023/08/19 09:00:11;;;;;;;7.85;4.15;;;;;;;;;;4995985;28;20060;-61
2023/08/19 09:02:39;;;;;;;8.38;4.32;;;;;;;;;;4995744;28;20448;-63
2023/08/19 09:05:06;;;;;;;9.43;4.22;;;;;;;;;;4995953;28;20101;-60
2023/08/19 09:07:35;;;;;;;9.05;4.45;;;;;;;;;;4996640;28;20487;-62
2023/08/19 09:10:02;;;;;;;6.18;3.70;;;;;;;;;;4995245;28;20042;-63
2023/08/19 09:12:32;;;;;;;7.50;3.85;;;;;;;;;;4995227;28;20147;-65
2023/08/19 09:15:02;;;;;;;7.18;4.30;;;;;;;;;;4997333;28;20050;-62
2023/08/19 09:17:30;;;;;;;10.30;3.90;;;;;;;;;;5013756;28;20046;-63
2023/08/19 09:19:57;;;;;;;7.18;3.80;;;;;;;;;;5013898;28;20060;-62
2023/08/19 09:22:24;;;;;;;7.25;3.95;;;;;;;;;;5012009;28;20049;-61
2023/08/19 09:24:54;;;;;;;6.97;4.20;;;;;;;;;;4997268;28;20117;-61
2023/08/19 09:27:28;;;;;;;9.00;4.68;;;;;;;;;;4998195;28;20048;-62
2023/08/19 09:29:55;;;;;;;7.72;4.70;;;;;;;;;;4990074;28;20108;-63
2023/08/19 09:32:32;;;;;;;7.57;4.20;;;;;;;;;;4998250;28;20085;-63
2023/08/19 09:35:03;;;;;;;7.55;4.18;;;;;;;;;;5010553;28;20046;-61
2023/08/19 09:37:33;;;;;;;7.80;4.10;;;;;;;;;;4997279;28;20169;-65
2023/08/19 09:40:07;;;;;;;8.70;4.20;;;;;;;;;;4998954;28;20198;-62
2023/08/19 09:42:35;;;;;;;8.52;4.25;;;;;;;;;;5000550;28;20050;-62
2023/08/19 09:45:04;;;;;;;8.07;4.40;;;;;;;;;;4998444;28;20044;-64
2023/08/19 09:47:32;;;;;;;7.57;4.47;;;;;;;;;;4996580;28;20511;-63
2023/08/19 09:49:58;;;;;;;8.57;4.35;;;;;;;;;;4996807;28;20046;-61
2023/08/19 09:52:25;;;;;;;7.32;4.07;;;;;;;;;;4998615;28;20042;-62
2023/08/19 09:54:52;;;;;;;8.25;4.55;;;;;;;;;;4998964;28;20224;-64
2023/08/19 09:57:19;;;;;;;8.75;4.68;;;;;;;;;;5016370;28;20045;-64
2023/08/19 09:59:46;;;;;;;6.82;4.22;;;;;;;;;;4998040;28;20097;-67
2023/08/19 10:02:13;;;;;;;9.40;4.57;;;;;;;;;;4999437;28;20046;-60
2023/08/19 10:04:40;;;;;;;9.10;5.30;;;;;;;;;;4998067;28;21477;-61
2023/08/19 10:07:10;;;;;;;8.30;4.63;;;;;;;;;;5014020;28;20884;-63
2023/08/19 10:09:38;;;;;;;8.95;4.75;;;;;;;;;;5014559;28;20126;-63
2023/08/19 10:12:06;;;;;;;9.05;5.10;;;;;;;;;;4999433;28;20046;-63
2023/08/19 10:14:33;;;;;;;8.38;4.88;;;;;;;;;;5012296;28;20080;-64
2023/08/19 10:17:06;;;;;;;8.98;4.55;;;;;;;;;;4999519;28;20113;-63
2023/08/19 10:19:33;;;;;;;;;;;;;;;;;;4999431;28;20529;-62
2023/08/19 10:22:00;;;;;;;8.70;5.13;;;;;;;;;;4997411;28;19964;-61
2023/08/19 10:24:27;;;;;;;8.43;4.68;;;;;;;;;;4996930;28;20391;-63
2023/08/19 10:26:54;;;;;;;9.68;4.65;;;;;;;;;;4998707;28;20066;-61
2023/08/19 10:29:20;;;;;;;9.02;5.20;;;;;;;;;;5013971;28;20062;-61
2023/08/19 10:31:47;;;;;;;9.60;5.13;;;;;;;;;;4999315;28;20044;-65
2023/08/19 10:34:33;;;;;;;8.40;4.57;;;;;;;;;;4998784;28;20663;-63
2023/08/19 10:37:07;;;;;;;9.90;4.80;;;;;;;;;;4999235;28;20049;-63
2023/08/19 10:39:34;;;;;;;9.13;5.03;;;;;;;;;;5013786;28;20089;-61
2023/08/19 10:42:00;;;;;;;11.80;5.15;;;;;;;;;;4999563;28;20041;-63
2023/08/19 10:44:33;;;;;;;7.35;4.60;;;;;;;;;;4997806;28;20076;-63
2023/08/19 10:47:16;;;;;;;11.35;5.22;;;;;;;;;;4998630;28;20042;-62
2023/08/19 10:49:43;;;;;;;7.85;4.60;;;;;;;;;;5012978;28;20205;-63
2023/08/19 10:52:19;;;;;;;8.85;4.78;;;;;;;;;;5000047;28;22003;-61
2023/08/19 10:54:48;;;;;;;10.68;5.38;;;;;;;;;;5012484;28;20084;-63
2023/08/19 10:57:23;;;;;;;10.30;4.90;;;;;;;;;;4997928;28;20102;-61
2023/08/19 10:59:57;;;;;;;9.02;5.00;;;;;;;;;;4998013;28;20073;-62
2023/08/19 11:02:24;;;;;;;9.80;5.10;;;;;;;;;;4999733;28;20052;-62
2023/08/19 11:04:52;;;;;;;9.43;4.78;;;;;;;;;;4998888;28;20045;-60
2023/08/19 11:07:19;;;;;;;9.43;5.57;;;;;;;;;;5012667;28;20790;-63
2023/08/19 11:09:47;;;;;;;9.48;5.15;;;;;;;;;;5009837;28;20045;-63
2023/08/19 11:12:16;;;;;;;8.63;4.97;;;;;;;;;;4998409;28;20038;-62
2023/08/19 11:14:46;;;;;;;9.45;5.10;;;;;;;;;;4999081;28;20073;-62
2023/08/19 11:17:12;;;;;;;9.18;4.90;;;;;;;;;;5001198;28;21106;-63
2023/08/19 11:19:39;;;;;;;8.75;4.75;;;;;;;;;;5000459;28;20054;-64
2023/08/19 11:22:06;;;;;;;9.43;4.93;;;;;;;;;;5001612;28;20037;-63
2023/08/19 11:24:33;;;;;;;8.20;4.57;;;;;;;;;;5003106;28;20050;-63
2023/08/19 11:27:00;;;;;;;9.13;5.15;;;;;;;;;;5001656;28;20037;-62
2023/08/19 11:29:27;;;;;;;8.75;4.88;;;;;;;;;;5016690;28;20489;-61
2023/08/19 11:31:54;;;;;;;9.10;4.70;;;;;;;;;;5015047;28;20058;-63
2023/08/19 11:34:21;;;;;;;8.55;4.68;;;;;;;;;;5016076;28;20053;-62
2023/08/19 11:36:48;;;;;;;8.45;5.07;;;;;;;;;;5000246;28;20053;-64
2023/08/19 11:39:14;;;;;;;8.77;4.95;;;;;;;;;;4999776;28;20045;-61
2023/08/19 11:41:41;;;;;;;9.02;4.50;;;;;;;;;;4997690;28;20041;-61
2023/08/19 11:44:07;;;;;;;9.23;4.80;;;;;;;;;;4999087;28;20302;-60
2023/08/19 11:46:35;;;;;;;9.35;4.55;;;;;;;;;;4998306;28;20068;-62
2023/08/19 11:49:06;;;;;;;8.10;4.72;;;;;;;;;;5013662;28;20062;-63
2023/08/19 11:51:32;;;;;;;11.98;4.97;;;;;;;;;;5014633;28;20072;-61
2023/08/19 11:54:03;;;;;;;10.23;5.35;;;;;;;;;;5000221;28;20033;-60
2023/08/19 11:56:30;;;;;;;11.55;5.30;;;;;;;;;;4997638;28;20030;-63
2023/08/19 11:58:57;;;;;;;9.05;4.93;;;;;;;;;;5013435;28;20422;-60
2023/08/19 12:01:27;;;;;;;9.30;5.25;;;;;;;;;;5011359;28;20037;-62
2023/08/19 12:03:54;;;;;;;8.63;5.10;;;;;;;;;;5014949;28;20034;-61
2023/08/19 12:06:21;;;;;;;10.50;4.95;;;;;;;;;;5015055;28;20044;-60
2023/08/19 12:09:07;;;;;;;9.80;5.45;;;;;;;;;;5017431;28;20068;-61
2023/08/19 12:11:38;;;;;;;10.02;5.53;;;;;;;;;;5014962;28;20042;-63
2023/08/19 12:14:05;;;;;;;9.07;5.10;;;;;;;;;;5011125;28;20344;-61
2023/08/19 12:16:31;;;;;;;10.00;5.65;;;;;;;;;;4997605;28;20037;-64
2023/08/19 12:18:58;;;;;;;9.68;5.30;;;;;;;;;;5016559;28;20072;-61
2023/08/19 12:21:26;;;;;;;8.65;4.95;;;;;;;;;;5008629;28;20481;-62
2023/08/19 12:23:53;;;;;;;9.65;5.20;;;;;;;;;;5008334;28;20034;-60
2023/08/19 12:26:19;;;;;;;8.73;5.25;;;;;;;;;;5009122;28;20044;-61
2023/08/19 12:28:46;;;;;;;12.23;5.88;;;;;;;;;;5014897;28;20490;-62
2023/08/19 12:31:13;;;;;;;9.48;5.38;;;;;;;;;;5015749;28;20069;-60
2023/08/19 12:33:42;;;;;;;11.10;5.45;;;;;;;;;;4992071;28;20037;-60
2023/08/19 12:36:09;;;;;;;9.88;4.88;;;;;;;;;;5016702;28;20076;-60
2023/08/19 12:38:35;;;;;;;11.65;5.65;;;;;;;;;;5015103;28;20037;-63
2023/08/19 12:41:02;;;;;;;10.32;5.50;;;;;;;;;;4983392;28;20035;-61
2023/08/19 12:43:29;;;;;;;9.88;5.57;;;;;;;;;;4992927;28;20038;-63
2023/08/19 12:45:55;;;;;;;13.15;5.90;;;;;;;;;;4972879;28;20042;-62
2023/08/19 12:48:22;;;;;;;9.60;5.60;;;;;;;;;;4989231;28;20042;-61
2023/08/19 12:50:48;;;;;;;11.95;5.70;;;;;;;;;;4978858;28;20415;-63
2023/08/19 12:53:15;;;;;;;10.10;5.93;;;;;;;;;;4979989;28;20035;-63
2023/08/19 12:55:42;;;;;;;9.48;5.88;;;;;;;;;;4977855;28;20085;-63
2023/08/19 12:58:08;;;;;;;11.65;6.20;;;;;;;;;;4979779;28;20511;-64
2023/08/19 13:00:35;;;;;;;10.10;5.70;;;;;;;;;;4977899;28;20062;-63
2023/08/19 13:03:02;;;;;;;13.27;6.35;;;;;;;;;;4980673;28;20050;-62
2023/08/19 13:05:28;;;;;;;12.10;5.82;;;;;;;;;;4994063;28;20121;-64
2023/08/19 13:07:55;;;;;;;11.52;5.97;;;;;;;;;;4978989;28;20062;-63
2023/08/19 13:10:22;;;;;;;10.48;5.88;;;;;;;;;;4994649;28;20050;-62
2023/08/19 13:12:49;;;;;;;13.70;6.05;;;;;;;;;;4979470;28;21151;-66
2023/08/19 13:15:20;;;;;;;10.88;6.07;;;;;;;;;;4979572;28;20038;-63
2023/08/19 13:17:47;;;;;;;10.25;5.32;;;;;;;;;;4979950;28;20045;-62
2023/08/19 13:20:17;;;;;;;10.70;5.70;;;;;;;;;;4978525;28;20221;-61
2023/08/19 13:22:43;;;;;;;11.63;5.68;;;;;;;;;;4993703;28;20035;-58
2023/08/19 13:25:10;;;;;;;11.50;5.93;;;;;;;;;;4979492;28;20039;-60
2023/08/19 13:27:37;;;;;;;12.40;6.50;;;;;;;;;;4994310;28;20186;-60
2023/08/19 13:30:04;;;;;;;10.02;6.30;;;;;;;;;;4993252;28;20088;-62
2023/08/19 13:32:30;;;;;;;9.30;5.93;;;;;;;;;;4978663;28;20081;-60
2023/08/19 13:34:57;;;;;;;10.25;5.47;;;;;;;;;;5003683;28;20126;-60
2023/08/19 13:37:23;;;;;;;10.55;6.35;;;;;;;;;;5012119;28;20049;-63
2023/08/19 13:39:50;;;;;;;9.60;5.93;;;;;;;;;;4996866;28;20176;-61
2023/08/19 13:42:17;;;;;;;10.80;6.45;;;;;;;;;;4996281;28;20070;-62
2023/08/19 13:44:44;;;;;;;10.38;5.75;;;;;;;;;;4998176;28;20034;-61
2023/08/19 13:47:10;;;;;;;10.82;6.20;;;;;;;;;;5014117;28;20045;-63
2023/08/19 13:49:37;;;;;;;10.38;6.03;;;;;;;;;;4998887;28;20593;-60
2023/08/19 13:52:03;;;;;;;9.65;5.55;;;;;;;;;;5001752;28;20546;-61
2023/08/19 13:54:30;;;;;;;9.85;6.07;;;;;;;;;;5000289;28;20430;-61
2023/08/19 13:56:57;;;;;;;11.05;5.80;;;;;;;;;;5012762;28;20044;-61
2023/08/19 13:59:24;;;;;;;12.57;5.80;;;;;;;;;;5010179;28;20064;-61
2023/08/19 14:01:50;;;;;;;9.80;5.72;;;;;;;;;;4995521;28;20111;-59
2023/08/19 14:04:17;;;;;;;9.25;5.90;;;;;;;;;;4995315;28;20084;-60
2023/08/19 14:06:44;;;;;;;9.32;5.30;;;;;;;;;;5010830;28;22286;-61
2023/08/19 14:09:10;;;;;;;10.82;5.38;;;;;;;;;;5010737;28;20079;-61
2023/08/19 14:11:37;;;;;;;9.63;5.70;;;;;;;;;;4994670;28;20033;-61
2023/08/19 14:14:04;;;;;;;12.77;5.60;;;;;;;;;;4995923;28;20038;-62
2023/08/19 14:16:30;;;;;;;9.32;5.47;;;;;;;;;;4995182;28;20065;-63
2023/08/19 14:18:57;;;;;;;9.30;4.90;;;;;;;;;;4995050;28;20050;-62
2023/08/19 14:21:24;;;;;;;9.45;5.22;;;;;;;;;;4995314;28;20161;-61
2023/08/19 14:23:51;;;;;;;12.25;5.05;;;;;;;;;;4995445;28;20042;-60
2023/08/19 14:26:18;;;;;;;8.18;4.90;;;;;;;;;;4995014;28;20124;-61
2023/08/19 14:28:45;;;;;;;9.63;5.15;;;;;;;;;;4995406;28;20398;-62
2023/08/19 14:31:11;;;;;;;9.50;4.90;;;;;;;;;;4995935;28;20034;-59
2023/08/19 14:33:38;;;;;;;8.52;4.55;;;;;;;;;;4993563;28;20080;-62
2023/08/19 14:36:05;;;;;;;8.45;4.72;;;;;;;;;;5012019;28;20867;-61
2023/08/19 14:38:32;;;;;;;8.63;4.97;;;;;;;;;;4996801;28;20104;-59
2023/08/19 14:40:58;;;;;;;9.68;4.90;;;;;;;;;;5010197;28;20156;-60
2023/08/19 14:43:25;;;;;;;8.63;4.43;;;;;;;;;;4994808;28;20503;-60